Time;durP1;ratioP1;P1;durP2;ratioP2;P2;SDS_P1;SDS_P2;PMS_P1;PMS_P2;Temp;Humidity;BMP_temperature;BMP_pressure;BME280_temperature;BME280_humidity;BME280_pressure;Samples;Min_cycle;Max_cycle;Signal;HPM_P1;HPM_P2
2021/10/14 00:02:06;;;;;;;4.05;2.17;;;;;;;;;;5067963;28;20136;-63
2021/10/14 00:04:34;;;;;;;6.93;2.33;;;;;;;;;;5061366;28;20139;-63
2021/10/14 00:07:02;;;;;;;5.13;2.67;;;;;;;;;;5061751;28;20572;-63
2021/10/14 00:09:32;;;;;;;5.80;2.47;;;;;;;;;;5068278;28;20059;-62
2021/10/14 00:12:00;;;;;;;5.15;2.65;;;;;;;;;;5064945;28;20131;-64
2021/10/14 00:14:29;;;;;;;5.00;2.53;;;;;;;;;;5065294;28;20045;-67
2021/10/14 00:16:57;;;;;;;6.13;2.72;;;;;;;;;;5068580;28;20470;-65
2021/10/14 00:19:26;;;;;;;5.13;2.47;;;;;;;;;;5078451;28;20075;-63
2021/10/14 00:21:54;;;;;;;7.53;2.95;;;;;;;;;;5066081;28;20117;-66
2021/10/14 00:24:22;;;;;;;4.68;2.42;;;;;;;;;;5073073;28;20048;-64
2021/10/14 00:26:52;;;;;;;7.45;3.30;;;;;;;;;;5069762;28;20478;-63
2021/10/14 00:29:20;;;;;;;3.47;2.20;;;;;;;;;;5055712;28;20131;-64
2021/10/14 00:31:48;;;;;;;6.70;2.70;;;;;;;;;;5070312;28;20080;-63
2021/10/14 00:34:17;;;;;;;5.00;2.50;;;;;;;;;;5075759;28;20360;-63
2021/10/14 00:36:45;;;;;;;3.85;2.08;;;;;;;;;;5070237;28;20051;-62
2021/10/14 00:39:13;;;;;;;4.45;2.60;;;;;;;;;;5068630;28;20411;-63
2021/10/14 00:41:41;;;;;;;5.47;2.38;;;;;;;;;;5081004;28;20627;-63
2021/10/14 00:44:11;;;;;;;4.05;2.35;;;;;;;;;;5067682;28;20079;-63
2021/10/14 00:46:49;;;;;;;4.65;2.55;;;;;;;;;;5069702;28;20063;-66
2021/10/14 00:49:17;;;;;;;4.22;2.55;;;;;;;;;;5064130;28;20576;-63
2021/10/14 00:51:46;;;;;;;5.15;2.67;;;;;;;;;;5066074;28;20132;-63
2021/10/14 00:54:15;;;;;;;6.15;3.05;;;;;;;;;;5061440;28;20509;-64
2021/10/14 00:56:46;;;;;;;4.78;2.85;;;;;;;;;;5067308;28;20048;-63
2021/10/14 00:59:16;;;;;;;4.90;2.53;;;;;;;;;;5060073;28;20102;-63
2021/10/14 01:01:44;;;;;;;5.75;2.85;;;;;;;;;;5058059;28;20131;-64
2021/10/14 01:04:12;;;;;;;7.22;2.53;;;;;;;;;;5061538;28;20520;-63
2021/10/14 01:06:41;;;;;;;7.32;2.75;;;;;;;;;;5068828;28;20512;-63
2021/10/14 01:09:09;;;;;;;4.85;2.45;;;;;;;;;;5060077;28;20076;-64
2021/10/14 01:11:37;;;;;;;5.43;2.85;;;;;;;;;;5064705;28;20488;-63
2021/10/14 01:14:06;;;;;;;4.97;2.90;;;;;;;;;;5064361;28;20040;-63
2021/10/14 01:16:39;;;;;;;4.50;2.45;;;;;;;;;;5064968;28;20114;-66
2021/10/14 01:19:08;;;;;;;5.43;2.35;;;;;;;;;;5062698;28;20716;-62
2021/10/14 01:21:38;;;;;;;5.57;2.33;;;;;;;;;;5061529;28;20560;-63
2021/10/14 01:27:18;;;;;;;6.40;3.03;;;;;;;;;;5059483;28;20140;-64
2021/10/14 01:29:46;;;;;;;5.40;2.72;;;;;;;;;;5063811;28;20495;-63
2021/10/14 01:32:20;;;;;;;6.18;3.12;;;;;;;;;;4845595;28;10001471;-64
2021/10/14 01:34:48;;;;;;;6.40;2.72;;;;;;;;;;691785;28;10002156;-63
2021/10/14 01:37:18;;;;;;;4.60;2.55;;;;;;;;;;5060183;28;20052;-63
2021/10/14 01:39:46;;;;;;;5.07;2.70;;;;;;;;;;5061965;28;20403;-66
2021/10/14 01:42:14;;;;;;;6.80;2.55;;;;;;;;;;5060661;28;20072;-63
2021/10/14 01:44:43;;;;;;;5.25;2.60;;;;;;;;;;5063699;28;20044;-65
2021/10/14 01:47:12;;;;;;;7.30;3.05;;;;;;;;;;5060210;28;20506;-63
2021/10/14 01:49:40;;;;;;;6.65;2.72;;;;;;;;;;5064115;28;20139;-63
2021/10/14 01:52:08;;;;;;;5.88;2.70;;;;;;;;;;5068004;28;20044;-65
2021/10/14 01:54:38;;;;;;;7.70;2.58;;;;;;;;;;5059917;28;20044;-67
2021/10/14 01:57:06;;;;;;;5.28;2.90;;;;;;;;;;5061645;28;20058;-63
2021/10/14 01:59:34;;;;;;;7.55;2.95;;;;;;;;;;5066455;28;20131;-63
2021/10/14 02:02:03;;;;;;;6.78;2.45;;;;;;;;;;5058417;28;20136;-65
2021/10/14 02:04:31;;;;;;;5.70;2.58;;;;;;;;;;5059334;28;20114;-63
2021/10/14 02:06:59;;;;;;;4.88;2.83;;;;;;;;;;5065624;28;20048;-64
2021/10/14 02:09:27;;;;;;;7.35;2.67;;;;;;;;;;5057149;28;20135;-63
2021/10/14 02:11:57;;;;;;;5.43;2.67;;;;;;;;;;5062588;28;20151;-64
2021/10/14 02:14:25;;;;;;;6.22;2.70;;;;;;;;;;5067960;28;20502;-63
2021/10/14 02:16:53;;;;;;;6.53;3.35;;;;;;;;;;5070036;28;20080;-62
2021/10/14 02:19:22;;;;;;;4.28;2.60;;;;;;;;;;5066845;28;20507;-64
2021/10/14 02:21:50;;;;;;;5.13;2.75;;;;;;;;;;5065515;28;20359;-63
2021/10/14 02:24:18;;;;;;;5.80;2.88;;;;;;;;;;5068480;28;20059;-63
2021/10/14 02:26:47;;;;;;;5.20;2.70;;;;;;;;;;5069514;28;20056;-62
2021/10/14 02:29:16;;;;;;;6.55;3.15;;;;;;;;;;5071557;28;20127;-62
2021/10/14 02:31:44;;;;;;;7.88;3.22;;;;;;;;;;5064935;28;20045;-63
2021/10/14 02:34:13;;;;;;;9.80;4.50;;;;;;;;;;5055841;28;20127;-63
2021/10/14 02:36:41;;;;;;;10.60;4.50;;;;;;;;;;5067532;28;20063;-65
2021/10/14 02:39:09;;;;;;;10.90;4.68;;;;;;;;;;5072352;28;20139;-65
2021/10/14 02:41:38;;;;;;;14.65;5.85;;;;;;;;;;5066390;28;20162;-63
2021/10/14 02:44:06;;;;;;;12.35;5.53;;;;;;;;;;5059867;28;20063;-65
2021/10/14 02:46:36;;;;;;;11.75;5.32;;;;;;;;;;5067620;28;20604;-62
2021/10/14 02:49:04;;;;;;;14.10;5.00;;;;;;;;;;5065187;28;20560;-63
2021/10/14 02:51:32;;;;;;;13.20;5.30;;;;;;;;;;5062784;28;20127;-63
2021/10/14 02:54:01;;;;;;;11.32;4.97;;;;;;;;;;5056152;28;20183;-64
2021/10/14 02:56:29;;;;;;;8.90;3.88;;;;;;;;;;5069119;28;20036;-64
2021/10/14 02:58:57;;;;;;;10.25;4.38;;;;;;;;;;5060610;28;20051;-65
2021/10/14 03:01:25;;;;;;;8.20;4.13;;;;;;;;;;5066491;28;20629;-62
2021/10/14 03:03:55;;;;;;;7.85;3.63;;;;;;;;;;5062967;28;20067;-62
2021/10/14 03:06:23;;;;;;;9.70;3.55;;;;;;;;;;5062557;28;20055;-63
2021/10/14 03:08:52;;;;;;;11.23;4.57;;;;;;;;;;5060530;28;20132;-63
2021/10/14 03:11:20;;;;;;;11.27;4.53;;;;;;;;;;5055574;28;20128;-63
2021/10/14 03:13:48;;;;;;;7.88;4.47;;;;;;;;;;5073692;28;20051;-63
2021/10/14 03:16:16;;;;;;;12.57;4.65;;;;;;;;;;5057810;28;20067;-64
2021/10/14 03:18:45;;;;;;;11.57;4.65;;;;;;;;;;5058485;28;20130;-63
2021/10/14 03:21:14;;;;;;;7.38;3.72;;;;;;;;;;5070710;28;20045;-63
2021/10/14 03:23:43;;;;;;;6.95;3.38;;;;;;;;;;5070463;28;20052;-62
2021/10/14 03:26:11;;;;;;;7.32;3.58;;;;;;;;;;5067739;28;20451;-63
2021/10/14 03:28:39;;;;;;;8.45;3.92;;;;;;;;;;5056923;28;20526;-63
2021/10/14 03:31:07;;;;;;;8.93;4.35;;;;;;;;;;5068269;28;20040;-62
2021/10/14 03:33:36;;;;;;;9.27;3.45;;;;;;;;;;5063487;28;20067;-64
2021/10/14 03:36:05;;;;;;;7.03;3.65;;;;;;;;;;5066189;28;20058;-63
2021/10/14 03:38:34;;;;;;;7.32;3.42;;;;;;;;;;5062705;28;20124;-67
2021/10/14 03:41:03;;;;;;;9.43;4.30;;;;;;;;;;5076804;28;20049;-63
2021/10/14 03:43:31;;;;;;;9.88;4.18;;;;;;;;;;5072233;28;20544;-63
2021/10/14 03:45:59;;;;;;;8.13;3.78;;;;;;;;;;5072521;28;20059;-64
2021/10/14 03:48:28;;;;;;;8.75;3.88;;;;;;;;;;5062398;28;20141;-65
2021/10/14 03:50:56;;;;;;;8.35;3.58;;;;;;;;;;5071925;28;20531;-63
2021/10/14 03:53:24;;;;;;;7.60;3.60;;;;;;;;;;5067746;28;20068;-63
2021/10/14 03:55:54;;;;;;;9.90;4.05;;;;;;;;;;5070727;28;20096;-63
2021/10/14 03:58:22;;;;;;;9.07;4.05;;;;;;;;;;5069430;28;20045;-64
2021/10/14 04:00:50;;;;;;;9.55;4.65;;;;;;;;;;5067171;28;20147;-62
2021/10/14 04:03:19;;;;;;;9.23;4.45;;;;;;;;;;5071852;28;20098;-63
2021/10/14 04:05:47;;;;;;;10.35;4.57;;;;;;;;;;5078760;28;20547;-63
2021/10/14 04:08:15;;;;;;;8.50;4.45;;;;;;;;;;5071582;28;20135;-63
2021/10/14 04:10:44;;;;;;;14.65;5.75;;;;;;;;;;5067207;28;20448;-64
2021/10/14 04:13:13;;;;;;;9.70;4.15;;;;;;;;;;5069710;28;20058;-63
2021/10/14 04:15:42;;;;;;;9.38;4.57;;;;;;;;;;5076191;28;20395;-63
2021/10/14 04:18:12;;;;;;;12.57;5.20;;;;;;;;;;5071841;28;20052;-62
2021/10/14 04:20:40;;;;;;;11.32;4.78;;;;;;;;;;5061865;28;20501;-64
2021/10/14 04:23:09;;;;;;;12.80;4.32;;;;;;;;;;5063500;28;20045;-63
2021/10/14 04:25:38;;;;;;;11.57;5.05;;;;;;;;;;5067783;28;20472;-63
2021/10/14 04:28:06;;;;;;;12.32;5.75;;;;;;;;;;5058383;28;20147;-64
2021/10/14 04:30:36;;;;;;;11.23;5.38;;;;;;;;;;5061318;28;20049;-63
2021/10/14 04:33:04;;;;;;;10.95;4.93;;;;;;;;;;5061314;28;20422;-64
2021/10/14 04:35:33;;;;;;;10.10;5.10;;;;;;;;;;5072791;28;20084;-64
2021/10/14 04:38:01;;;;;;;13.32;5.25;;;;;;;;;;5059204;28;20140;-63
2021/10/14 04:40:30;;;;;;;11.60;5.55;;;;;;;;;;5065193;28;20175;-65
2021/10/14 04:42:58;;;;;;;11.85;5.22;;;;;;;;;;5072395;28;20394;-65
2021/10/14 04:45:26;;;;;;;11.25;5.15;;;;;;;;;;5070963;28;20524;-63
2021/10/14 04:47:56;;;;;;;15.65;5.22;;;;;;;;;;5065385;28;20783;-64
2021/10/14 04:50:24;;;;;;;13.02;5.30;;;;;;;;;;5068614;28;20464;-62
2021/10/14 04:52:52;;;;;;;13.18;6.10;;;;;;;;;;5056087;28;20135;-66
2021/10/14 04:55:20;;;;;;;12.70;5.15;;;;;;;;;;5061221;28;20068;-63
2021/10/14 04:57:53;;;;;;;12.68;5.63;;;;;;;;;;5066843;28;20063;-63
2021/10/14 05:00:21;;;;;;;13.05;5.25;;;;;;;;;;5065576;28;20151;-64
2021/10/14 05:02:50;;;;;;;15.65;5.97;;;;;;;;;;5063866;28;20495;-63
2021/10/14 05:05:20;;;;;;;15.55;5.97;;;;;;;;;;5063952;28;20053;-64
2021/10/14 05:07:48;;;;;;;16.40;6.90;;;;;;;;;;5052916;28;20048;-63
2021/10/14 05:10:16;;;;;;;15.57;5.75;;;;;;;;;;5057388;28;20483;-63
2021/10/14 05:12:45;;;;;;;15.77;6.75;;;;;;;;;;5055414;28;20045;-63
2021/10/14 05:15:13;;;;;;;13.60;5.80;;;;;;;;;;5057743;28;20052;-64
2021/10/14 05:17:41;;;;;;;15.07;6.85;;;;;;;;;;5066451;28;20053;-65
2021/10/14 05:20:10;;;;;;;16.55;6.65;;;;;;;;;;5060455;28;20064;-63
2021/10/14 05:22:40;;;;;;;14.00;6.47;;;;;;;;;;5052399;28;20147;-64
2021/10/14 05:25:08;;;;;;;15.35;6.32;;;;;;;;;;5065061;28;20135;-63
2021/10/14 05:27:37;;;;;;;15.65;6.90;;;;;;;;;;5058254;28;20311;-64
2021/10/14 05:30:06;;;;;;;19.10;7.85;;;;;;;;;;5065238;28;20052;-64
2021/10/14 05:32:34;;;;;;;16.95;6.85;;;;;;;;;;5067856;28;20609;-62
2021/10/14 05:35:02;;;;;;;15.20;6.72;;;;;;;;;;5060315;28;20461;-63
2021/10/14 05:37:31;;;;;;;19.15;7.40;;;;;;;;;;5064485;28;20427;-63
2021/10/14 05:40:00;;;;;;;19.25;7.50;;;;;;;;;;5069770;28;20381;-64
2021/10/14 05:42:29;;;;;;;17.70;7.43;;;;;;;;;;5064016;28;20049;-66
2021/10/14 05:44:57;;;;;;;18.13;7.20;;;;;;;;;;5067151;28;20048;-62
2021/10/14 05:47:25;;;;;;;17.38;6.65;;;;;;;;;;5063758;28;20050;-63
2021/10/14 05:49:54;;;;;;;18.55;7.55;;;;;;;;;;5055247;28;20481;-63
2021/10/14 05:52:22;;;;;;;16.73;6.25;;;;;;;;;;5059927;28;20036;-63
2021/10/14 05:54:50;;;;;;;15.25;6.90;;;;;;;;;;5060084;28;20056;-63
2021/10/14 05:57:20;;;;;;;18.10;6.90;;;;;;;;;;5066812;28;20718;-63
2021/10/14 05:59:49;;;;;;;13.52;6.45;;;;;;;;;;5060174;28;20055;-62
2021/10/14 06:02:17;;;;;;;17.30;6.80;;;;;;;;;;5061452;28;20056;-63
2021/10/14 06:04:45;;;;;;;18.48;6.72;;;;;;;;;;5066964;28;20098;-63
2021/10/14 06:07:14;;;;;;;17.42;6.55;;;;;;;;;;5066836;28;20562;-63
2021/10/14 06:09:42;;;;;;;16.50;7.20;;;;;;;;;;5065368;28;20139;-64
2021/10/14 06:12:10;;;;;;;18.13;7.20;;;;;;;;;;5065707;28;20037;-64
2021/10/14 06:14:40;;;;;;;12.93;6.38;;;;;;;;;;5065521;28;20052;-63
2021/10/14 06:17:08;;;;;;;17.33;6.88;;;;;;;;;;5067762;28;20112;-63
2021/10/14 06:19:36;;;;;;;15.45;6.03;;;;;;;;;;5059850;28;20044;-67
2021/10/14 06:22:05;;;;;;;19.35;7.32;;;;;;;;;;5057143;28;20128;-63
2021/10/14 06:24:33;;;;;;;17.17;7.68;;;;;;;;;;5056599;28;20098;-63
2021/10/14 06:27:01;;;;;;;16.83;6.55;;;;;;;;;;5057286;28;20152;-63
2021/10/14 06:29:29;;;;;;;16.48;7.47;;;;;;;;;;5063032;28;20052;-67
2021/10/14 06:31:59;;;;;;;15.70;7.35;;;;;;;;;;5073419;28;20123;-63
2021/10/14 06:34:27;;;;;;;16.42;6.72;;;;;;;;;;5070333;28;20051;-64
2021/10/14 06:36:56;;;;;;;16.33;6.85;;;;;;;;;;5062488;28;20077;-62
2021/10/14 06:39:24;;;;;;;21.05;7.30;;;;;;;;;;5062950;28;20080;-63
2021/10/14 06:41:54;;;;;;;16.25;6.70;;;;;;;;;;5070238;28;20126;-63
2021/10/14 06:44:23;;;;;;;18.70;6.85;;;;;;;;;;5061264;28;20485;-63
2021/10/14 06:46:51;;;;;;;21.40;7.65;;;;;;;;;;5058804;28;20131;-62
2021/10/14 06:49:21;;;;;;;18.60;7.30;;;;;;;;;;5061013;28;20143;-64
2021/10/14 06:51:49;;;;;;;16.00;6.43;;;;;;;;;;5071824;28;20125;-63
2021/10/14 06:54:18;;;;;;;19.83;7.90;;;;;;;;;;5061001;28;20041;-63
2021/10/14 06:56:46;;;;;;;18.55;6.85;;;;;;;;;;5069002;28;20056;-67
2021/10/14 06:59:15;;;;;;;15.35;7.03;;;;;;;;;;5065953;28;20048;-64
2021/10/14 07:01:43;;;;;;;19.67;6.95;;;;;;;;;;5082398;28;20076;-63
2021/10/14 07:04:12;;;;;;;11.73;5.82;;;;;;;;;;5072159;28;20049;-63
2021/10/14 07:06:42;;;;;;;16.52;6.00;;;;;;;;;;5068263;28;20531;-63
2021/10/14 07:09:11;;;;;;;12.82;6.53;;;;;;;;;;5069951;28;20060;-62
2021/10/14 07:11:43;;;;;;;13.85;6.35;;;;;;;;;;5083954;28;20136;-63
2021/10/14 07:14:12;;;;;;;20.05;6.82;;;;;;;;;;5080943;28;20057;-63
2021/10/14 07:16:40;;;;;;;22.45;7.38;;;;;;;;;;5060212;28;20076;-63
2021/10/14 07:19:09;;;;;;;18.17;6.53;;;;;;;;;;5086835;28;20437;-62
2021/10/14 07:21:38;;;;;;;15.77;7.07;;;;;;;;;;5069493;28;20052;-63
2021/10/14 07:24:08;;;;;;;14.10;6.15;;;;;;;;;;5071332;28;20068;-63
2021/10/14 07:26:37;;;;;;;16.40;6.18;;;;;;;;;;5068493;28;20479;-63
2021/10/14 07:29:05;;;;;;;16.30;6.45;;;;;;;;;;5072644;28;20052;-65
2021/10/14 07:31:34;;;;;;;11.48;6.50;;;;;;;;;;5076912;28;20044;-62
2021/10/14 07:34:02;;;;;;;18.83;7.72;;;;;;;;;;5068722;28;20175;-65
2021/10/14 07:36:30;;;;;;;14.88;6.25;;;;;;;;;;5063301;28;20102;-65
2021/10/14 07:39:00;;;;;;;16.40;7.05;;;;;;;;;;5061738;28;20191;-66
2021/10/14 07:41:30;;;;;;;16.67;6.45;;;;;;;;;;5073597;28;20048;-63
2021/10/14 07:44:00;;;;;;;16.40;5.80;;;;;;;;;;5071204;28;20118;-63
2021/10/14 07:46:29;;;;;;;10.88;5.93;;;;;;;;;;5073648;28;20040;-63
2021/10/14 07:48:57;;;;;;;13.65;6.13;;;;;;;;;;5070764;28;20098;-63
2021/10/14 07:51:25;;;;;;;17.77;7.38;;;;;;;;;;5077190;28;20147;-65
2021/10/14 07:53:54;;;;;;;14.10;6.43;;;;;;;;;;5060665;28;20076;-64
2021/10/14 07:56:23;;;;;;;11.20;5.45;;;;;;;;;;5066912;28;20412;-64
2021/10/14 07:58:52;;;;;;;16.45;6.43;;;;;;;;;;5062608;28;20049;-63
2021/10/14 08:01:21;;;;;;;15.02;5.53;;;;;;;;;;5063268;28;20045;-63
2021/10/14 08:03:50;;;;;;;14.68;5.65;;;;;;;;;;5072490;28;20064;-62
2021/10/14 08:06:19;;;;;;;13.38;5.97;;;;;;;;;;5065696;28;20040;-64
2021/10/14 08:08:48;;;;;;;15.18;6.70;;;;;;;;;;5063110;28;20052;-67
2021/10/14 08:11:16;;;;;;;11.00;5.60;;;;;;;;;;5074978;28;20051;-65
2021/10/14 08:13:45;;;;;;;11.80;5.88;;;;;;;;;;5067153;28;20060;-63
2021/10/14 08:16:15;;;;;;;12.60;5.30;;;;;;;;;;5063755;28;20070;-64
2021/10/14 08:18:44;;;;;;;10.43;5.35;;;;;;;;;;5063129;28;20064;-63
2021/10/14 08:21:12;;;;;;;12.00;5.53;;;;;;;;;;5065867;28;20040;-63
2021/10/14 08:23:41;;;;;;;9.85;4.80;;;;;;;;;;5059593;28;20195;-64
2021/10/14 08:26:10;;;;;;;9.95;4.05;;;;;;;;;;5060110;28;20056;-63
2021/10/14 08:28:39;;;;;;;9.10;4.50;;;;;;;;;;5057843;28;20056;-63
2021/10/14 08:31:08;;;;;;;7.32;4.25;;;;;;;;;;5072561;28;20061;-63
2021/10/14 08:33:38;;;;;;;8.68;4.10;;;;;;;;;;5069680;28;20135;-63
2021/10/14 08:36:07;;;;;;;7.22;3.58;;;;;;;;;;5070574;28;20080;-63
2021/10/14 08:38:36;;;;;;;8.85;4.20;;;;;;;;;;5066494;28;20083;-63
2021/10/14 08:41:05;;;;;;;8.52;3.90;;;;;;;;;;5075723;28;20037;-63
2021/10/14 08:43:36;;;;;;;8.63;3.80;;;;;;;;;;5053919;28;20508;-64
2021/10/14 08:46:05;;;;;;;6.97;3.78;;;;;;;;;;5062111;28;20427;-64
2021/10/14 08:48:35;;;;;;;9.88;4.13;;;;;;;;;;5065110;28;20051;-64
2021/10/14 08:51:05;;;;;;;6.25;3.13;;;;;;;;;;5056516;28;20059;-62
2021/10/14 08:53:34;;;;;;;6.70;3.42;;;;;;;;;;5059862;28;20496;-64
2021/10/14 08:56:02;;;;;;;12.43;3.10;;;;;;;;;;5061078;28;20063;-64
2021/10/14 08:58:31;;;;;;;6.68;3.08;;;;;;;;;;5065040;28;20506;-66
2021/10/14 09:01:07;;;;;;;7.15;3.25;;;;;;;;;;5068322;28;20048;-63
2021/10/14 09:03:39;;;;;;;6.82;3.15;;;;;;;;;;5062076;28;20048;-63
2021/10/14 09:06:10;;;;;;;6.63;2.92;;;;;;;;;;5076861;28;20400;-64
2021/10/14 09:08:40;;;;;;;6.95;3.72;;;;;;;;;;5069832;28;20052;-63
2021/10/14 09:11:09;;;;;;;7.97;3.50;;;;;;;;;;5056735;28;20110;-63
2021/10/14 09:13:37;;;;;;;5.22;3.15;;;;;;;;;;5083840;28;20380;-62
2021/10/14 09:16:19;;;;;;;7.28;3.30;;;;;;;;;;5054824;28;20044;-63
2021/10/14 09:18:48;;;;;;;7.35;2.90;;;;;;;;;;5068341;28;20053;-65
2021/10/14 09:21:28;;;;;;;7.35;3.30;;;;;;;;;;5070059;28;20633;-63
2021/10/14 09:23:58;;;;;;;7.72;3.10;;;;;;;;;;5068442;28;20115;-63
2021/10/14 09:26:34;;;;;;;8.05;3.25;;;;;;;;;;5065402;28;20135;-63
2021/10/14 09:29:07;;;;;;;6.78;3.25;;;;;;;;;;5063871;28;20048;-64
2021/10/14 09:31:46;;;;;;;6.93;2.88;;;;;;;;;;5057625;28;20098;-66
2021/10/14 09:34:28;;;;;;;6.35;3.35;;;;;;;;;;5062639;28;20037;-62
2021/10/14 09:36:59;;;;;;;6.00;2.97;;;;;;;;;;5068890;28;20044;-66
2021/10/14 09:39:28;;;;;;;7.00;2.67;;;;;;;;;;5066444;28;20496;-63
2021/10/14 09:41:58;;;;;;;5.07;2.78;;;;;;;;;;5066085;28;20135;-65
2021/10/14 09:44:51;;;;;;;6.28;2.97;;;;;;;;;;5061670;28;20052;-62
2021/10/14 09:47:20;;;;;;;6.32;3.63;;;;;;;;;;5066125;28;20052;-64
2021/10/14 09:49:48;;;;;;;4.47;2.50;;;;;;;;;;5065339;28;20542;-63
2021/10/14 09:52:18;;;;;;;6.80;3.10;;;;;;;;;;5064524;28;20052;-66
2021/10/14 09:54:47;;;;;;;4.10;2.45;;;;;;;;;;5068320;28;20102;-64
2021/10/14 09:57:16;;;;;;;3.25;2.05;;;;;;;;;;5064217;28;20132;-66
2021/10/14 09:59:50;;;;;;;6.25;2.45;;;;;;;;;;5068004;28;20448;-63
2021/10/14 10:02:19;;;;;;;6.03;3.13;;;;;;;;;;5065224;28;20139;-63
2021/10/14 10:04:49;;;;;;;5.38;2.72;;;;;;;;;;5061354;28;20098;-67
2021/10/14 10:07:19;;;;;;;6.60;2.67;;;;;;;;;;5069083;28;20052;-67
2021/10/14 10:09:47;;;;;;;6.50;2.67;;;;;;;;;;5065431;28;20546;-63
2021/10/14 10:12:16;;;;;;;7.00;2.40;;;;;;;;;;5059995;28;20044;-63
2021/10/14 10:14:44;;;;;;;3.75;2.50;;;;;;;;;;5072003;28;20174;-63
2021/10/14 10:17:14;;;;;;;5.90;3.17;;;;;;;;;;5069998;28;20460;-63
2021/10/14 10:19:44;;;;;;;4.60;2.70;;;;;;;;;;5064971;28;20135;-63
2021/10/14 10:22:13;;;;;;;7.15;3.47;;;;;;;;;;5056546;28;20090;-65
2021/10/14 10:24:43;;;;;;;9.65;2.97;;;;;;;;;;5064213;28;20472;-62
2021/10/14 10:27:11;;;;;;;3.65;2.60;;;;;;;;;;5065116;28;20288;-62
2021/10/14 10:29:44;;;;;;;5.18;2.60;;;;;;;;;;5066959;28;20086;-63
2021/10/14 10:32:17;;;;;;;4.88;2.30;;;;;;;;;;5059256;28;20145;-65
2021/10/14 10:34:54;;;;;;;6.85;2.78;;;;;;;;;;5057852;28;20052;-66
2021/10/14 10:37:25;;;;;;;8.10;2.63;;;;;;;;;;5065831;28;20048;-63
2021/10/14 10:39:56;;;;;;;6.72;3.10;;;;;;;;;;5066165;28;20052;-63
2021/10/14 10:42:26;;;;;;;6.72;3.25;;;;;;;;;;5064935;28;20072;-66
2021/10/14 10:44:55;;;;;;;5.18;2.85;;;;;;;;;;5063574;28;20492;-66
2021/10/14 10:47:39;;;;;;;5.85;3.33;;;;;;;;;;5062559;28;20040;-63
2021/10/14 10:50:09;;;;;;;5.63;2.47;;;;;;;;;;5060652;28;20048;-64
2021/10/14 10:52:38;;;;;;;5.68;3.00;;;;;;;;;;5058312;28;20053;-64
2021/10/14 10:55:15;;;;;;;6.55;3.25;;;;;;;;;;5053777;28;20072;-64
2021/10/14 10:57:47;;;;;;;9.05;3.75;;;;;;;;;;5064936;28;20052;-64
2021/10/14 11:00:16;;;;;;;9.95;4.40;;;;;;;;;;5055563;28;20045;-66
2021/10/14 11:02:45;;;;;;;7.72;2.70;;;;;;;;;;5071433;28;20138;-64
2021/10/14 11:05:15;;;;;;;5.25;2.55;;;;;;;;;;5065376;28;20084;-66
2021/10/14 11:07:44;;;;;;;4.60;2.53;;;;;;;;;;5055954;28;20048;-63
2021/10/14 11:10:28;;;;;;;5.68;2.85;;;;;;;;;;5062362;28;20049;-70
2021/10/14 11:12:59;;;;;;;4.32;2.28;;;;;;;;;;5062364;28;20396;-63
2021/10/14 11:15:48;;;;;;;5.28;2.25;;;;;;;;;;5059958;28;20044;-64
2021/10/14 11:18:17;;;;;;;5.18;2.10;;;;;;;;;;5067954;28;20491;-65
2021/10/14 11:20:54;;;;;;;4.50;2.30;;;;;;;;;;5064256;28;20086;-65
2021/10/14 11:23:23;;;;;;;3.80;1.90;;;;;;;;;;5054328;28;20076;-63
2021/10/14 11:26:03;;;;;;;3.13;1.95;;;;;;;;;;5061483;28;20048;-63
2021/10/14 11:28:31;;;;;;;4.68;2.13;;;;;;;;;;5063424;28;20447;-67
2021/10/14 11:31:02;;;;;;;11.10;2.42;;;;;;;;;;5067846;28;20053;-65
2021/10/14 11:33:36;;;;;;;6.75;2.35;;;;;;;;;;5072448;28;20474;-63
2021/10/14 11:36:06;;;;;;;3.58;1.92;;;;;;;;;;5061304;28;20087;-63
2021/10/14 11:38:35;;;;;;;3.05;1.45;;;;;;;;;;5064224;28;20503;-65
2021/10/14 11:41:05;;;;;;;7.70;2.00;;;;;;;;;;5059525;28;20508;-64
2021/10/14 11:43:34;;;;;;;5.57;2.17;;;;;;;;;;5066004;28;20045;-63
2021/10/14 11:46:02;;;;;;;9.02;2.42;;;;;;;;;;5057071;28;20051;-63
2021/10/14 11:48:32;;;;;;;5.18;2.53;;;;;;;;;;5068435;28;20076;-64
2021/10/14 11:51:06;;;;;;;6.95;1.70;;;;;;;;;;5068103;28;20041;-67
2021/10/14 11:53:34;;;;;;;4.03;1.80;;;;;;;;;;5063757;28;20167;-65
2021/10/14 11:56:10;;;;;;;8.27;1.95;;;;;;;;;;5071601;28;20048;-64
2021/10/14 11:58:39;;;;;;;5.13;1.90;;;;;;;;;;5067653;28;20078;-62
2021/10/14 12:01:11;;;;;;;4.20;1.98;;;;;;;;;;5068883;28;20216;-63
2021/10/14 12:03:41;;;;;;;3.00;1.50;;;;;;;;;;5070048;28;20045;-69
2021/10/14 12:06:10;;;;;;;3.83;1.55;;;;;;;;;;5057930;28;20568;-65
2021/10/14 12:08:38;;;;;;;2.53;1.50;;;;;;;;;;5068783;28;20105;-63
2021/10/14 12:11:18;;;;;;;5.15;1.50;;;;;;;;;;5069068;28;20127;-65
2021/10/14 12:13:56;;;;;;;2.47;1.13;;;;;;;;;;5066731;28;20071;-64
2021/10/14 12:16:24;;;;;;;3.25;1.35;;;;;;;;;;5060593;28;20056;-62
2021/10/14 12:18:53;;;;;;;2.13;1.15;;;;;;;;;;5058637;28;20044;-63
2021/10/14 12:21:32;;;;;;;2.38;1.17;;;;;;;;;;5061475;28;20051;-64
2021/10/14 12:24:04;;;;;;;2.92;1.02;;;;;;;;;;5061969;28;20726;-66
2021/10/14 12:26:38;;;;;;;1.80;1.10;;;;;;;;;;5067936;28;20100;-63
2021/10/14 12:29:34;;;;;;;1.85;1.27;;;;;;;;;;5061654;28;20499;-63
2021/10/14 12:32:07;;;;;;;2.25;1.42;;;;;;;;;;5016602;28;20083;-64
2021/10/14 12:34:59;;;;;;;2.05;1.10;;;;;;;;;;5057760;28;20137;-63
2021/10/14 12:37:30;;;;;;;2.78;1.42;;;;;;;;;;5043518;28;20119;-64
2021/10/14 12:40:20;;;;;;;2.58;1.48;;;;;;;;;;5071554;28;20052;-62
2021/10/14 12:42:58;;;;;;;3.03;1.05;;;;;;;;;;5055510;28;20044;-65
2021/10/14 12:45:32;;;;;;;2.40;1.35;;;;;;;;;;5067030;28;20466;-64
2021/10/14 12:48:15;;;;;;;3.08;1.42;;;;;;;;;;5071698;28;20448;-65
2021/10/14 12:51:05;;;;;;;3.35;1.52;;;;;;;;;;5059269;28;20095;-66
2021/10/14 12:53:38;;;;;;;2.72;1.50;;;;;;;;;;5062597;28;20664;-63
2021/10/14 12:56:06;;;;;;;4.28;1.58;;;;;;;;;;5061631;28;20110;-64
2021/10/14 12:58:36;;;;;;;3.50;1.60;;;;;;;;;;5058442;28;20109;-63
2021/10/14 13:01:05;;;;;;;3.10;1.83;;;;;;;;;;5065950;28;20329;-63
2021/10/14 13:03:34;;;;;;;3.65;1.80;;;;;;;;;;5062664;28;20108;-63
2021/10/14 13:06:04;;;;;;;4.88;1.52;;;;;;;;;;5066872;28;20047;-63
2021/10/14 13:08:36;;;;;;;3.03;1.38;;;;;;;;;;5062691;28;20049;-64
2021/10/14 13:11:06;;;;;;;2.63;1.33;;;;;;;;;;5057216;28;20048;-63
2021/10/14 13:13:37;;;;;;;1.90;1.10;;;;;;;;;;5064666;28;20071;-62
2021/10/14 13:16:06;;;;;;;2.95;1.33;;;;;;;;;;5066290;28;20076;-63
2021/10/14 13:18:35;;;;;;;3.42;1.25;;;;;;;;;;5068612;28;20370;-66
2021/10/14 13:21:04;;;;;;;1.75;1.17;;;;;;;;;;5061528;28;20059;-62
2021/10/14 13:23:33;;;;;;;1.98;1.05;;;;;;;;;;5061904;28;20037;-65
2021/10/14 13:26:02;;;;;;;2.53;1.45;;;;;;;;;;5067522;28;20458;-64
2021/10/14 13:28:31;;;;;;;3.17;0.98;;;;;;;;;;5056199;28;20139;-64
2021/10/14 13:31:01;;;;;;;5.45;1.05;;;;;;;;;;5063048;28;20044;-64
2021/10/14 13:33:30;;;;;;;3.72;1.00;;;;;;;;;;5053442;28;20412;-64
2021/10/14 13:36:03;;;;;;;2.30;1.20;;;;;;;;;;5061865;28;20488;-63
2021/10/14 13:38:33;;;;;;;1.85;1.10;;;;;;;;;;5068045;28;20394;-65
2021/10/14 13:41:05;;;;;;;4.20;1.40;;;;;;;;;;5069702;28;20094;-66
2021/10/14 13:43:35;;;;;;;1.92;1.10;;;;;;;;;;5061887;28;20142;-63
2021/10/14 13:46:04;;;;;;;4.15;1.20;;;;;;;;;;5065072;28;20135;-63
2021/10/14 13:48:33;;;;;;;1.95;1.17;;;;;;;;;;5060112;28;20041;-66
2021/10/14 13:51:02;;;;;;;2.50;1.15;;;;;;;;;;5073311;28;20048;-66
2021/10/14 13:53:30;;;;;;;4.32;1.30;;;;;;;;;;5067051;28;20048;-63
2021/10/14 13:55:58;;;;;;;1.65;1.10;;;;;;;;;;5063418;28;20040;-63
2021/10/14 13:58:27;;;;;;;7.07;1.52;;;;;;;;;;5066141;28;20055;-68
2021/10/14 14:00:55;;;;;;;1.85;1.08;;;;;;;;;;5054980;28;20095;-63
2021/10/14 14:03:25;;;;;;;4.47;1.40;;;;;;;;;;5055387;28;20045;-64
2021/10/14 14:05:55;;;;;;;2.83;1.20;;;;;;;;;;5060556;28;20055;-63
2021/10/14 14:08:23;;;;;;;1.92;0.98;;;;;;;;;;5067558;28;20511;-63
2021/10/14 14:10:52;;;;;;;2.08;1.20;;;;;;;;;;5054651;28;20045;-63
2021/10/14 14:13:21;;;;;;;3.15;1.35;;;;;;;;;;5061449;28;20041;-64
2021/10/14 14:15:50;;;;;;;2.85;1.00;;;;;;;;;;5057068;28;20052;-67
2021/10/14 14:18:19;;;;;;;2.58;1.30;;;;;;;;;;5060585;28;20045;-64
2021/10/14 14:20:49;;;;;;;2.55;1.30;;;;;;;;;;5064978;28;20049;-65
2021/10/14 14:23:18;;;;;;;3.35;1.08;;;;;;;;;;5061092;28;20454;-63
2021/10/14 14:25:47;;;;;;;2.17;1.27;;;;;;;;;;5056855;28;20056;-63
2021/10/14 14:28:15;;;;;;;2.67;1.50;;;;;;;;;;5060895;28;20103;-63
2021/10/14 14:30:44;;;;;;;2.78;1.77;;;;;;;;;;5060811;28;20055;-63
2021/10/14 14:33:14;;;;;;;3.88;1.83;;;;;;;;;;5059924;28;20106;-63
2021/10/14 14:35:44;;;;;;;4.45;1.95;;;;;;;;;;5056182;28;20419;-63
2021/10/14 14:38:14;;;;;;;3.30;1.75;;;;;;;;;;5056550;28;20081;-62
2021/10/14 14:40:43;;;;;;;3.45;1.92;;;;;;;;;;5058539;28;20393;-64
2021/10/14 14:43:12;;;;;;;3.83;1.60;;;;;;;;;;5052696;28;20063;-62
2021/10/14 14:45:41;;;;;;;3.13;1.50;;;;;;;;;;5063633;28;20506;-63
2021/10/14 14:48:10;;;;;;;6.15;2.13;;;;;;;;;;5054264;28;20040;-63
2021/10/14 14:50:44;;;;;;;4.53;1.90;;;;;;;;;;5065989;28;20064;-63
2021/10/14 14:53:17;;;;;;;3.55;1.60;;;;;;;;;;5061568;28;20076;-65
2021/10/14 14:55:47;;;;;;;6.07;1.73;;;;;;;;;;5048212;28;20072;-68
2021/10/14 14:58:17;;;;;;;3.50;1.67;;;;;;;;;;5070166;28;20132;-63